Raymond, California
Current Conditions -  °F | °C
As of 10:22 AM on Monday 26 Jan 2015 (Local Time) from KMAE Reporting Station
Haze Haze  
Wind Chill: 43°   Ceiling: Unl
Heat Index: 43°   Visibility: 2.5mi
Dew Point: 42°   Wind: 0mph
Humidity: 97%   Direction: NA
Pressure: 30.08"   Gusts: NA
Location:  37.22°N, 119.91°W
Report Text: KMAE 261822Z AUTO 00000KT 2 1/2SM BR SCT003 06/06 A3008 RMK AO2 T00610056
Loading
Personal Weather Stations






























Interactive Weather Map New forecast layout! Learn more

10-Day Weather Forecast

Advertisements
Track Severe Weather on mobile